sensor_id;sensor_type;location;lat;lon;timestamp;pressure;altitude;pressure_sealevel;temperature;humidity
77537;BME280;67783;51.656;16.106;2023-05-29T00:00:51;102008.23;;;14.96;47.68
77537;BME280;67783;51.656;16.106;2023-05-29T00:04:03;102005.84;;;14.91;50.35
77537;BME280;67783;51.656;16.106;2023-05-29T00:07:05;101997.88;;;14.90;47.41
77537;BME280;67783;51.656;16.106;2023-05-29T00:10:08;101999.16;;;14.84;48.26
77537;BME280;67783;51.656;16.106;2023-05-29T00:13:10;102001.86;;;14.84;47.33
77537;BME280;67783;51.656;16.106;2023-05-29T00:16:12;101994.08;;;14.79;47.80
77537;BME280;67783;51.656;16.106;2023-05-29T00:19:23;101998.84;;;14.76;49.58
77537;BME280;67783;51.656;16.106;2023-05-29T00:22:27;102003.49;;;14.74;47.34
77537;BME280;67783;51.656;16.106;2023-05-29T00:25:28;102009.21;;;14.69;48.19
77537;BME280;67783;51.656;16.106;2023-05-29T00:28:30;102010.91;;;14.70;47.52
77537;BME280;67783;51.656;16.106;2023-05-29T00:31:31;102011.36;;;14.64;48.12
77537;BME280;67783;51.656;16.106;2023-05-29T00:34:33;102009.70;;;14.62;48.09
77537;BME280;67783;51.656;16.106;2023-05-29T00:37:34;102007.35;;;14.57;48.75
77537;BME280;67783;51.656;16.106;2023-05-29T00:40:42;102007.67;;;14.53;51.67
77537;BME280;67783;51.656;16.106;2023-05-29T00:43:44;101997.94;;;14.50;48.81
77537;BME280;67783;51.656;16.106;2023-05-29T00:46:46;101999.11;;;14.46;49.61
77537;BME280;67783;51.656;16.106;2023-05-29T00:49:49;101992.01;;;14.45;48.75
77537;BME280;67783;51.656;16.106;2023-05-29T00:52:52;101989.63;;;14.41;49.16
77537;BME280;67783;51.656;16.106;2023-05-29T00:56:00;101990.89;;;14.35;51.55
77537;BME280;67783;51.656;16.106;2023-05-29T00:59:03;101990.09;;;14.33;48.93
77537;BME280;67783;51.656;16.106;2023-05-29T01:02:05;101996.78;;;14.27;49.96
77537;BME280;67783;51.656;16.106;2023-05-29T01:05:07;101991.39;;;14.27;49.10
77537;BME280;67783;51.656;16.106;2023-05-29T01:08:12;101995.14;;;14.25;49.57
77537;BME280;67783;51.656;16.106;2023-05-29T01:24:33;101994.40;;;13.96;56.06
77537;BME280;67783;51.656;16.106;2023-05-29T01:27:37;101992.87;;;13.92;51.74
77537;BME280;67783;51.656;16.106;2023-05-29T01:30:42;101999.55;;;13.86;52.76
77537;BME280;67783;51.656;16.106;2023-05-29T01:33:54;102003.41;;;13.82;56.86
77537;BME280;67783;51.656;16.106;2023-05-29T01:36:56;102005.32;;;13.80;52.44
77537;BME280;67783;51.656;16.106;2023-05-29T01:39:59;102011.98;;;13.75;53.40
77537;BME280;67783;51.656;16.106;2023-05-29T01:43:01;102012.97;;;13.74;52.26
77537;BME280;67783;51.656;16.106;2023-05-29T01:46:03;102013.27;;;13.69;52.74
77537;BME280;67783;51.656;16.106;2023-05-29T01:49:12;102011.52;;;13.68;55.03
77537;BME280;67783;51.656;16.106;2023-05-29T01:52:13;102014.31;;;13.67;52.22
77537;BME280;67783;51.656;16.106;2023-05-29T01:55:15;102011.81;;;13.64;53.07
77537;BME280;67783;51.656;16.106;2023-05-29T01:58:18;102010.87;;;13.65;52.03
77537;BME280;67783;51.656;16.106;2023-05-29T02:01:22;102002.86;;;13.63;52.36
77537;BME280;67783;51.656;16.106;2023-05-29T02:04:32;102014.72;;;13.61;54.39
77537;BME280;67783;51.656;16.106;2023-05-29T02:07:36;102019.23;;;13.60;51.85
77537;BME280;67783;51.656;16.106;2023-05-29T02:10:39;102014.93;;;13.58;52.44
77537;BME280;67783;51.656;16.106;2023-05-29T02:13:41;102012.98;;;13.60;51.64
77537;BME280;67783;51.656;16.106;2023-05-29T02:16:43;102005.85;;;13.59;51.98
77537;BME280;67783;51.656;16.106;2023-05-29T02:19:52;102005.98;;;13.57;54.02
77537;BME280;67783;51.656;16.106;2023-05-29T02:22:54;102004.16;;;13.58;51.72
77537;BME280;67783;51.656;16.106;2023-05-29T02:25:56;102009.62;;;13.56;52.46
77537;BME280;67783;51.656;16.106;2023-05-29T02:28:57;102004.23;;;13.56;51.57
77537;BME280;67783;51.656;16.106;2023-05-29T02:31:59;101998.06;;;13.54;51.86
77537;BME280;67783;51.656;16.106;2023-05-29T02:35:00;102010.59;;;13.55;51.48
77537;BME280;67783;51.656;16.106;2023-05-29T02:38:02;102008.84;;;13.54;51.76
77537;BME280;67783;51.656;16.106;2023-05-29T02:41:07;102006.27;;;13.53;53.70
77537;BME280;67783;51.656;16.106;2023-05-29T02:44:08;102011.45;;;13.56;51.68
77537;BME280;67783;51.656;16.106;2023-05-29T02:47:10;102015.23;;;13.53;52.35
77537;BME280;67783;51.656;16.106;2023-05-29T02:50:12;102019.54;;;13.56;51.49
77537;BME280;67783;51.656;16.106;2023-05-29T02:53:15;102008.01;;;13.54;51.84
77537;BME280;67783;51.656;16.106;2023-05-29T02:56:28;102019.62;;;13.54;53.60
77537;BME280;67783;51.656;16.106;2023-05-29T02:59:29;102017.70;;;13.56;51.57
77537;BME280;67783;51.656;16.106;2023-05-29T03:02:33;102015.02;;;13.56;52.12
77537;BME280;67783;51.656;16.106;2023-05-29T03:05:35;102020.31;;;13.58;51.41
77537;BME280;67783;51.656;16.106;2023-05-29T03:08:37;102023.97;;;13.57;51.69
77537;BME280;67783;51.656;16.106;2023-05-29T03:11:48;102021.36;;;13.55;53.41
77537;BME280;67783;51.656;16.106;2023-05-29T03:14:52;102017.50;;;13.59;51.46
77537;BME280;67783;51.656;16.106;2023-05-29T03:17:54;102021.15;;;13.58;52.04
77537;BME280;67783;51.656;16.106;2023-05-29T03:20:56;102013.65;;;13.63;51.42
77537;BME280;67783;51.656;16.106;2023-05-29T03:23:58;102016.34;;;13.63;51.69
77537;BME280;67783;51.656;16.106;2023-05-29T03:27:09;102018.86;;;13.66;53.39
77537;BME280;67783;51.656;16.106;2023-05-29T03:30:12;102016.71;;;13.71;51.41
77537;BME280;67783;51.656;16.106;2023-05-29T03:33:14;102015.75;;;13.72;51.97
77537;BME280;67783;51.656;16.106;2023-05-29T03:36:16;102026.03;;;13.80;51.33
77537;BME280;67783;51.656;16.106;2023-05-29T03:39:18;102023.99;;;13.83;51.61
77537;BME280;67783;51.656;16.106;2023-05-29T03:42:29;102027.38;;;13.87;53.25
77537;BME280;67783;51.656;16.106;2023-05-29T03:45:32;102027.62;;;13.97;51.25
77537;BME280;67783;51.656;16.106;2023-05-29T03:48:33;102032.14;;;14.50;51.49
77537;BME280;67783;51.656;16.106;2023-05-29T03:51:35;102029.48;;;16.00;49.31
77537;BME280;67783;51.656;16.106;2023-05-29T03:54:37;102022.87;;;17.53;46.43
77537;BME280;67783;51.656;16.106;2023-05-29T03:57:39;102027.37;;;18.93;44.42
77537;BME280;67783;51.656;16.106;2023-05-29T04:00:43;102020.77;;;19.67;42.54
77537;BME280;67783;51.656;16.106;2023-05-29T04:03:48;102025.99;;;19.49;40.93
77537;BME280;67783;51.656;16.106;2023-05-29T04:06:49;102032.74;;;19.34;43.15
77537;BME280;67783;51.656;16.106;2023-05-29T04:09:51;102035.72;;;19.21;42.92
77537;BME280;67783;51.656;16.106;2023-05-29T04:12:52;102034.57;;;19.24;43.62
77537;BME280;67783;51.656;16.106;2023-05-29T04:15:54;102041.74;;;19.25;43.37
77537;BME280;67783;51.656;16.106;2023-05-29T04:18:56;102040.66;;;19.37;43.50
77537;BME280;67783;51.656;16.106;2023-05-29T04:21:58;102047.17;;;19.46;43.13
77537;BME280;67783;51.656;16.106;2023-05-29T04:25:03;102039.61;;;19.59;41.61
77537;BME280;67783;51.656;16.106;2023-05-29T04:28:05;102051.99;;;19.72;42.72
77537;BME280;67783;51.656;16.106;2023-05-29T04:31:07;102048.32;;;19.83;42.00
77537;BME280;67783;51.656;16.106;2023-05-29T04:34:09;102053.06;;;19.91;42.20
77537;BME280;67783;51.656;16.106;2023-05-29T04:37:11;102056.23;;;19.96;41.92
77537;BME280;67783;51.656;16.106;2023-05-29T04:40:23;102060.11;;;20.03;40.12
77537;BME280;67783;51.656;16.106;2023-05-29T04:43:25;102057.55;;;20.11;41.73
77537;BME280;67783;51.656;16.106;2023-05-29T04:46:29;102059.98;;;20.14;41.45
77537;BME280;67783;51.656;16.106;2023-05-29T04:49:31;102059.01;;;20.24;41.66
77537;BME280;67783;51.656;16.106;2023-05-29T04:52:32;102062.77;;;20.33;41.37
77537;BME280;67783;51.656;16.106;2023-05-29T04:55:44;102055.59;;;20.42;39.98
77537;BME280;67783;51.656;16.106;2023-05-29T04:58:46;102057.76;;;20.48;41.25
77537;BME280;67783;51.656;16.106;2023-05-29T05:01:48;102056.77;;;20.49;41.04
77537;BME280;67783;51.656;16.106;2023-05-29T05:04:50;102055.48;;;20.53;41.41
77537;BME280;67783;51.656;16.106;2023-05-29T05:07:52;102059.92;;;20.54;41.28
77537;BME280;67783;51.656;16.106;2023-05-29T05:11:04;102060.19;;;20.51;40.40
77537;BME280;67783;51.656;16.106;2023-05-29T05:14:07;102055.61;;;20.51;41.53
77537;BME280;67783;51.656;16.106;2023-05-29T05:17:09;102055.34;;;20.45;41.47
77537;BME280;67783;51.656;16.106;2023-05-29T05:20:11;102059.05;;;20.44;41.63
77537;BME280;67783;51.656;16.106;2023-05-29T05:23:13;102055.47;;;20.43;41.47
77537;BME280;67783;51.656;16.106;2023-05-29T05:26:25;102052.87;;;20.42;41.35
77537;BME280;67783;51.656;16.106;2023-05-29T05:29:29;102061.04;;;20.42;41.64
77537;BME280;67783;51.656;16.106;2023-05-29T05:32:30;102048.70;;;20.28;41.53
77537;BME280;67783;51.656;16.106;2023-05-29T05:35:33;102050.10;;;20.22;41.82
77537;BME280;67783;51.656;16.106;2023-05-29T05:38:34;102053.54;;;20.15;42.03
77537;BME280;67783;51.656;16.106;2023-05-29T05:41:45;102058.70;;;20.08;41.92
77537;BME280;67783;51.656;16.106;2023-05-29T05:44:47;102057.23;;;20.04;42.23
77537;BME280;67783;51.656;16.106;2023-05-29T05:47:49;102063.25;;;19.98;42.22
77537;BME280;67783;51.656;16.106;2023-05-29T05:50:51;102066.25;;;19.95;42.22
77537;BME280;67783;51.656;16.106;2023-05-29T05:53:53;102060.04;;;19.83;42.33
77537;BME280;67783;51.656;16.106;2023-05-29T05:56:55;102066.91;;;19.78;42.55
77537;BME280;67783;51.656;16.106;2023-05-29T05:59:57;102069.30;;;19.71;42.72
77537;BME280;67783;51.656;16.106;2023-05-29T06:03:01;102070.74;;;19.66;43.58
77537;BME280;67783;51.656;16.106;2023-05-29T06:06:05;102070.74;;;19.66;43.26
77537;BME280;67783;51.656;16.106;2023-05-29T06:09:09;102071.45;;;19.68;43.48
77537;BME280;67783;51.656;16.106;2023-05-29T06:12:12;102072.89;;;19.72;43.36
77537;BME280;67783;51.656;16.106;2023-05-29T06:15:14;102073.63;;;19.74;43.43
77537;BME280;67783;51.656;16.106;2023-05-29T06:18:22;102077.34;;;19.73;43.65
77537;BME280;67783;51.656;16.106;2023-05-29T06:21:24;102073.47;;;19.75;43.25
77537;BME280;67783;51.656;16.106;2023-05-29T06:24:25;102082.79;;;19.73;43.62
77537;BME280;67783;51.656;16.106;2023-05-29T06:27:27;102074.21;;;19.77;43.46
77537;BME280;67783;51.656;16.106;2023-05-29T06:30:28;102080.65;;;19.76;43.82
77537;BME280;67783;51.656;16.106;2023-05-29T06:33:30;102086.95;;;19.77;43.67
77537;BME280;67783;51.656;16.106;2023-05-29T06:36:31;102090.49;;;19.68;43.77
77537;BME280;67783;51.656;16.106;2023-05-29T06:39:36;102088.87;;;19.56;44.02
77537;BME280;67783;51.656;16.106;2023-05-29T06:42:39;102094.00;;;19.49;43.86
77537;BME280;67783;51.656;16.106;2023-05-29T06:45:41;102092.80;;;19.42;44.45
77537;BME280;67783;51.656;16.106;2023-05-29T06:48:43;102094.65;;;19.42;44.27
77537;BME280;67783;51.656;16.106;2023-05-29T06:51:45;102105.65;;;19.40;44.32
77537;BME280;67783;51.656;16.106;2023-05-29T06:54:57;102103.92;;;19.39;45.09
77537;BME280;67783;51.656;16.106;2023-05-29T06:57:58;102097.98;;;19.45;44.42
77537;BME280;67783;51.656;16.106;2023-05-29T07:01:00;102093.84;;;19.51;44.69
77537;BME280;67783;51.656;16.106;2023-05-29T07:04:03;102102.06;;;19.60;44.19
77537;BME280;67783;51.656;16.106;2023-05-29T07:07:05;102095.23;;;19.66;43.86
77537;BME280;67783;51.656;16.106;2023-05-29T07:10:07;102097.13;;;19.75;43.83
77537;BME280;67783;51.656;16.106;2023-05-29T07:13:09;102095.86;;;19.79;44.00
77537;BME280;67783;51.656;16.106;2023-05-29T07:16:13;102093.30;;;19.87;44.64
77537;BME280;67783;51.656;16.106;2023-05-29T07:19:15;102099.63;;;19.97;43.82
77537;BME280;67783;51.656;16.106;2023-05-29T07:22:18;102098.06;;;20.04;43.51
77537;BME280;67783;51.656;16.106;2023-05-29T07:25:19;102100.70;;;20.15;43.40
77537;BME280;67783;51.656;16.106;2023-05-29T07:28:21;102098.26;;;20.22;43.27
77537;BME280;67783;51.656;16.106;2023-05-29T07:31:23;102102.77;;;20.33;42.88
77537;BME280;67783;51.656;16.106;2023-05-29T07:34:24;102105.20;;;20.36;42.56
77537;BME280;67783;51.656;16.106;2023-05-29T07:37:29;102109.24;;;20.41;42.35
77537;BME280;67783;51.656;16.106;2023-05-29T07:40:32;102105.51;;;20.52;42.82
77537;BME280;67783;51.656;16.106;2023-05-29T07:43:34;102112.27;;;20.57;42.71
77537;BME280;67783;51.656;16.106;2023-05-29T07:46:35;102113.28;;;20.66;42.84
77537;BME280;67783;51.656;16.106;2023-05-29T07:49:37;102112.69;;;20.72;42.91
77537;BME280;67783;51.656;16.106;2023-05-29T07:52:39;102115.27;;;20.83;43.08
77537;BME280;67783;51.656;16.106;2023-05-29T07:55:40;102119.86;;;20.92;42.81
77537;BME280;67783;51.656;16.106;2023-05-29T07:58:46;102127.91;;;21.03;43.14
77537;BME280;67783;51.656;16.106;2023-05-29T08:01:48;102129.34;;;21.17;42.78
77537;BME280;67783;51.656;16.106;2023-05-29T08:04:51;102131.63;;;21.22;42.87
77537;BME280;67783;51.656;16.106;2023-05-29T08:07:53;102130.63;;;21.32;42.75
77537;BME280;67783;51.656;16.106;2023-05-29T08:10:54;102127.86;;;21.42;42.79
77537;BME280;67783;51.656;16.106;2023-05-29T08:14:06;102124.98;;;21.53;42.91
77537;BME280;67783;51.656;16.106;2023-05-29T08:17:08;102125.79;;;21.63;42.61
77537;BME280;67783;51.656;16.106;2023-05-29T08:20:10;102118.43;;;21.73;42.40
77537;BME280;67783;51.656;16.106;2023-05-29T08:23:12;102118.79;;;21.88;42.38
77537;BME280;67783;51.656;16.106;2023-05-29T08:26:13;102120.52;;;21.98;41.95
77537;BME280;67783;51.656;16.106;2023-05-29T08:29:26;102111.24;;;22.09;40.48
77537;BME280;67783;51.656;16.106;2023-05-29T08:32:28;102125.41;;;22.22;41.25
77537;BME280;67783;51.656;16.106;2023-05-29T08:35:29;102121.22;;;22.28;41.06
77537;BME280;67783;51.656;16.106;2023-05-29T08:38:31;102117.40;;;22.38;41.29
77537;BME280;67783;51.656;16.106;2023-05-29T08:44:47;102109.51;;;22.53;39.90
77537;BME280;67783;51.656;16.106;2023-05-29T08:47:54;102105.70;;;22.64;40.84
77537;BME280;67783;51.656;16.106;2023-05-29T08:50:58;102112.15;;;22.72;40.43
77537;BME280;67783;51.656;16.106;2023-05-29T08:54:00;102107.16;;;22.85;40.30
77537;BME280;67783;51.656;16.106;2023-05-29T08:57:01;102101.75;;;22.93;40.08
77537;BME280;67783;51.656;16.106;2023-05-29T09:00:08;102106.63;;;23.08;38.47
77537;BME280;67783;51.656;16.106;2023-05-29T09:03:21;102107.55;;;23.16;39.24
77537;BME280;67783;51.656;16.106;2023-05-29T09:06:23;102108.81;;;23.22;38.61
77537;BME280;67783;51.656;16.106;2023-05-29T09:09:34;102112.29;;;23.32;35.95
77537;BME280;67783;51.656;16.106;2023-05-29T09:12:36;102111.59;;;23.48;38.01
77537;BME280;67783;51.656;16.106;2023-05-29T09:15:38;102115.40;;;23.55;36.91
77537;BME280;67783;51.656;16.106;2023-05-29T09:18:43;102116.98;;;23.65;37.27
77537;BME280;67783;51.656;16.106;2023-05-29T09:21:47;102114.47;;;23.72;36.78
77537;BME280;67783;51.656;16.106;2023-05-29T09:24:54;102110.57;;;23.82;34.34
77537;BME280;67783;51.656;16.106;2023-05-29T09:28:05;102113.02;;;23.93;36.73
77537;BME280;67783;51.656;16.106;2023-05-29T09:31:16;102109.78;;;23.98;36.55
77537;BME280;67783;51.656;16.106;2023-05-29T09:34:26;102107.94;;;24.07;34.71
77537;BME280;67783;51.656;16.106;2023-05-29T09:37:31;102115.91;;;24.18;35.65
77537;BME280;67783;51.656;16.106;2023-05-29T09:40:39;102108.02;;;24.23;36.17
77537;BME280;67783;51.656;16.106;2023-05-29T09:43:49;102108.91;;;24.31;34.54
77537;BME280;67783;51.656;16.106;2023-05-29T09:46:51;102111.16;;;24.44;36.38
77537;BME280;67783;51.656;16.106;2023-05-29T09:49:52;102116.37;;;24.55;35.59
77537;BME280;67783;51.656;16.106;2023-05-29T09:52:58;102108.81;;;24.65;35.31
77537;BME280;67783;51.656;16.106;2023-05-29T09:56:02;102112.43;;;24.74;35.48
77537;BME280;67783;51.656;16.106;2023-05-29T09:59:11;102103.89;;;24.85;32.88
77537;BME280;67783;51.656;16.106;2023-05-29T10:02:14;102112.82;;;25.03;35.35
77537;BME280;67783;51.656;16.106;2023-05-29T10:05:17;102112.30;;;25.16;34.78
77537;BME280;67783;51.656;16.106;2023-05-29T10:08:20;102109.89;;;25.29;34.99
77537;BME280;67783;51.656;16.106;2023-05-29T10:11:23;102108.16;;;25.36;33.52
77537;BME280;67783;51.656;16.106;2023-05-29T10:14:31;102109.54;;;25.32;31.18
77537;BME280;67783;51.656;16.106;2023-05-29T10:17:36;102107.80;;;25.39;34.10
77537;BME280;67783;51.656;16.106;2023-05-29T10:20:41;102109.88;;;25.37;33.43
77537;BME280;67783;51.656;16.106;2023-05-29T10:23:56;102104.91;;;25.33;30.82
77537;BME280;67783;51.656;16.106;2023-05-29T10:26:59;102111.43;;;25.23;31.51
77537;BME280;67783;51.656;16.106;2023-05-29T10:30:12;102108.69;;;25.23;32.50
77537;BME280;67783;51.656;16.106;2023-05-29T10:33:33;102105.25;;;25.38;29.33
77537;BME280;67783;51.656;16.106;2023-05-29T10:36:43;102116.74;;;25.41;32.01
77537;BME280;67783;51.656;16.106;2023-05-29T10:39:45;102109.52;;;25.40;32.13
77537;BME280;67783;51.656;16.106;2023-05-29T10:42:51;102101.27;;;25.48;29.45
77537;BME280;67783;51.656;16.106;2023-05-29T10:46:00;102113.27;;;25.63;32.01
77537;BME280;67783;51.656;16.106;2023-05-29T10:49:02;102103.65;;;25.76;31.09
77537;BME280;67783;51.656;16.106;2023-05-29T10:52:05;102105.27;;;25.93;31.88
77537;BME280;67783;51.656;16.106;2023-05-29T10:55:07;102105.56;;;26.06;31.82
77537;BME280;67783;51.656;16.106;2023-05-29T10:58:18;102103.14;;;26.11;29.47
77537;BME280;67783;51.656;16.106;2023-05-29T11:01:23;102105.51;;;26.22;31.55
77537;BME280;67783;51.656;16.106;2023-05-29T11:04:28;102102.97;;;26.21;31.15
77537;BME280;67783;51.656;16.106;2023-05-29T11:10:56;102102.92;;;26.29;31.38
77537;BME280;67783;51.656;16.106;2023-05-29T11:14:02;102099.92;;;26.38;31.23
77537;BME280;67783;51.656;16.106;2023-05-29T11:17:05;102092.14;;;26.50;29.50
77537;BME280;67783;51.656;16.106;2023-05-29T11:20:16;102086.03;;;26.62;31.11
77537;BME280;67783;51.656;16.106;2023-05-29T11:23:18;102080.75;;;26.76;30.83
77537;BME280;67783;51.656;16.106;2023-05-29T11:26:31;102079.30;;;26.88;29.40
77537;BME280;67783;51.656;16.106;2023-05-29T11:29:35;102082.29;;;27.01;31.03
77537;BME280;67783;51.656;16.106;2023-05-29T11:32:37;102082.69;;;27.13;30.67
77537;BME280;67783;51.656;16.106;2023-05-29T11:35:41;102080.15;;;27.11;30.96
77537;BME280;67783;51.656;16.106;2023-05-29T11:38:43;102084.70;;;27.04;30.71
77537;BME280;67783;51.656;16.106;2023-05-29T11:41:52;102090.38;;;27.02;28.90
77537;BME280;67783;51.656;16.106;2023-05-29T11:48:09;102085.90;;;27.01;30.61
77537;BME280;67783;51.656;16.106;2023-05-29T11:51:18;102075.58;;;27.03;28.29
77537;BME280;67783;51.656;16.106;2023-05-29T11:54:20;102082.21;;;27.09;30.18
77537;BME280;67783;51.656;16.106;2023-05-29T11:57:22;102083.36;;;27.00;30.12
77537;BME280;67783;51.656;16.106;2023-05-29T12:00:25;102079.99;;;26.90;30.59
77537;BME280;67783;51.656;16.106;2023-05-29T12:03:27;102072.39;;;26.69;30.37
77537;BME280;67783;51.656;16.106;2023-05-29T12:06:38;102074.72;;;26.57;29.37
77537;BME280;67783;51.656;16.106;2023-05-29T12:09:40;102074.02;;;26.55;30.83
77537;BME280;67783;51.656;16.106;2023-05-29T12:12:42;102071.83;;;26.51;30.35
77537;BME280;67783;51.656;16.106;2023-05-29T12:15:44;102071.34;;;26.47;30.41
77537;BME280;67783;51.656;16.106;2023-05-29T12:18:46;102071.23;;;26.41;30.48
77537;BME280;67783;51.656;16.106;2023-05-29T12:21:47;102076.34;;;26.44;30.77
77537;BME280;67783;51.656;16.106;2023-05-29T12:24:49;102075.48;;;26.43;30.47
77537;BME280;67783;51.656;16.106;2023-05-29T12:27:56;102063.63;;;26.43;28.79
77537;BME280;67783;51.656;16.106;2023-05-29T12:30:59;102054.84;;;26.47;30.52
77537;BME280;67783;51.656;16.106;2023-05-29T12:34:07;102067.39;;;26.50;30.12
77537;BME280;67783;51.656;16.106;2023-05-29T12:37:09;102048.62;;;26.53;30.21
77537;BME280;67783;51.656;16.106;2023-05-29T12:40:25;102053.25;;;26.53;30.21
77537;BME280;67783;51.656;16.106;2023-05-29T12:43:28;102051.42;;;26.45;29.40
77537;BME280;67783;51.656;16.106;2023-05-29T12:49:44;102053.32;;;26.45;29.99
77537;BME280;67783;51.656;16.106;2023-05-29T12:56:05;102042.26;;;26.53;29.25
77537;BME280;67783;51.656;16.106;2023-05-29T12:59:10;102050.45;;;26.61;29.76
77537;BME280;67783;51.656;16.106;2023-05-29T13:02:15;102033.19;;;26.67;27.90
77537;BME280;67783;51.656;16.106;2023-05-29T13:05:18;102035.38;;;26.72;29.79
77537;BME280;67783;51.656;16.106;2023-05-29T13:08:20;102024.20;;;26.73;29.38
77537;BME280;67783;51.656;16.106;2023-05-29T13:11:22;102030.88;;;26.79;29.90
77537;BME280;67783;51.656;16.106;2023-05-29T13:14:24;102023.65;;;26.78;29.68
77537;BME280;67783;51.656;16.106;2023-05-29T13:17:35;102021.55;;;26.80;28.77
77537;BME280;67783;51.656;16.106;2023-05-29T13:20:37;102015.35;;;26.86;29.81
77537;BME280;67783;51.656;16.106;2023-05-29T13:23:39;102021.89;;;26.85;29.47
77537;BME280;67783;51.656;16.106;2023-05-29T13:26:41;102017.55;;;26.90;29.86
77537;BME280;67783;51.656;16.106;2023-05-29T13:29:43;102005.20;;;26.86;29.50
77537;BME280;67783;51.656;16.106;2023-05-29T13:32:44;102000.77;;;26.77;29.49
77537;BME280;67783;51.656;16.106;2023-05-29T13:35:46;102013.75;;;26.69;29.78
77537;BME280;67783;51.656;16.106;2023-05-29T13:38:51;102013.09;;;26.67;28.60
77537;BME280;67783;51.656;16.106;2023-05-29T13:41:52;102013.44;;;26.63;29.83
77537;BME280;67783;51.656;16.106;2023-05-29T13:44:54;102015.23;;;26.56;29.58
77537;BME280;67783;51.656;16.106;2023-05-29T13:47:55;102019.02;;;26.55;29.91
77537;BME280;67783;51.656;16.106;2023-05-29T13:50:57;102019.39;;;26.52;29.78
77537;BME280;67783;51.656;16.106;2023-05-29T13:53:59;102016.63;;;26.52;29.96
77537;BME280;67783;51.656;16.106;2023-05-29T13:57:02;102021.45;;;26.50;30.00
77537;BME280;67783;51.656;16.106;2023-05-29T14:00:07;102013.58;;;26.47;29.16
77537;BME280;67783;51.656;16.106;2023-05-29T14:03:09;102021.10;;;26.53;30.06
77537;BME280;67783;51.656;16.106;2023-05-29T14:06:11;102018.41;;;26.45;29.56
77537;BME280;67783;51.656;16.106;2023-05-29T14:09:13;102017.07;;;26.41;29.85
77537;BME280;67783;51.656;16.106;2023-05-29T14:12:16;102010.30;;;26.29;29.84
77537;BME280;67783;51.656;16.106;2023-05-29T14:15:26;102013.05;;;26.29;29.07
77537;BME280;67783;51.656;16.106;2023-05-29T14:18:28;102015.10;;;26.27;29.99
77537;BME280;67783;51.656;16.106;2023-05-29T14:21:30;102012.04;;;26.22;29.79
77537;BME280;67783;51.656;16.106;2023-05-29T14:24:31;102020.61;;;26.27;30.12
77537;BME280;67783;51.656;16.106;2023-05-29T14:27:33;102008.58;;;26.28;29.85
77537;BME280;67783;51.656;16.106;2023-05-29T14:30:34;102008.89;;;26.33;29.98
77537;BME280;67783;51.656;16.106;2023-05-29T14:33:36;102016.08;;;26.34;29.99
77537;BME280;67783;51.656;16.106;2023-05-29T14:36:41;102009.61;;;26.27;28.85
77537;BME280;67783;51.656;16.106;2023-05-29T14:41:38;102012.73;;;26.24;30.11
77537;BME280;67783;51.656;16.106;2023-05-29T14:44:40;102006.55;;;26.22;29.90
77537;BME280;67783;51.656;16.106;2023-05-29T14:47:42;102018.23;;;26.24;30.12
77537;BME280;67783;51.656;16.106;2023-05-29T14:50:43;102010.36;;;26.21;29.98
77537;BME280;67783;51.656;16.106;2023-05-29T14:53:45;102013.13;;;26.13;30.18
77537;BME280;67783;51.656;16.106;2023-05-29T14:56:46;102014.74;;;25.99;30.16
77537;BME280;67783;51.656;16.106;2023-05-29T14:59:52;102014.10;;;25.89;29.44
77537;BME280;67783;51.656;16.106;2023-05-29T15:02:54;102013.94;;;25.91;30.47
77537;BME280;67783;51.656;16.106;2023-05-29T15:06:00;102013.94;;;25.91;30.49
77537;BME280;67783;51.656;16.106;2023-05-29T15:09:01;102014.42;;;25.94;30.44
77537;BME280;67783;51.656;16.106;2023-05-29T15:12:03;102012.91;;;25.92;30.50
77537;BME280;67783;51.656;16.106;2023-05-29T15:15:13;102004.51;;;25.85;29.58
77537;BME280;67783;51.656;16.106;2023-05-29T15:18:14;102005.20;;;25.87;30.54
77537;BME280;67783;51.656;16.106;2023-05-29T15:21:16;102006.34;;;25.93;30.59
77537;BME280;67783;51.656;16.106;2023-05-29T15:24:17;101999.45;;;25.97;30.45
77537;BME280;67783;51.656;16.106;2023-05-29T15:27:19;102010.77;;;26.02;30.43
77537;BME280;67783;51.656;16.106;2023-05-29T15:30:22;102007.65;;;26.05;30.52
77537;BME280;67783;51.656;16.106;2023-05-29T15:33:23;102009.37;;;26.06;30.61
77537;BME280;67783;51.656;16.106;2023-05-29T15:36:28;102004.07;;;26.04;30.31
77537;BME280;67783;51.656;16.106;2023-05-29T15:39:30;101991.36;;;26.03;30.46
77537;BME280;67783;51.656;16.106;2023-05-29T15:42:32;101996.04;;;25.95;30.44
77537;BME280;67783;51.656;16.106;2023-05-29T15:45:33;101989.86;;;25.93;30.71
77537;BME280;67783;51.656;16.106;2023-05-29T15:48:35;101996.63;;;25.82;30.37
77537;BME280;67783;51.656;16.106;2023-05-29T15:51:36;101986.17;;;25.78;30.69
77537;BME280;67783;51.656;16.106;2023-05-29T15:54:44;101990.32;;;25.73;30.57
77537;BME280;67783;51.656;16.106;2023-05-29T15:57:50;101994.34;;;25.63;30.30
77537;BME280;67783;51.656;16.106;2023-05-29T16:00:52;101999.29;;;25.59;30.64
77537;BME280;67783;51.656;16.106;2023-05-29T16:03:53;102002.41;;;25.48;30.38
77537;BME280;67783;51.656;16.106;2023-05-29T16:06:56;101997.28;;;25.45;30.75
77537;BME280;67783;51.656;16.106;2023-05-29T16:09:57;101994.57;;;25.37;30.70
77537;BME280;67783;51.656;16.106;2023-05-29T16:12:59;102006.57;;;25.36;30.79
77537;BME280;67783;51.656;16.106;2023-05-29T16:16:00;102000.25;;;25.27;30.79
77537;BME280;67783;51.656;16.106;2023-05-29T16:19:05;102003.52;;;25.23;30.07